Santa Teresa, NM

12:28 PM MDT on August 29, 2016 (GMT -0600)
Carvel acres | | Change Station

Elev 3743 ft 31.85 °N, 106.62 °W | Updated 4 minutes ago

Mostly Cloudy
Mostly Cloudy
88.3 °F
Feels Like 89 °F
N
5.8
Wind Variable Wind from NE

Today
High -- | Low -- °F
--% Chance of Precip.
Yesterday
High -- | Low -- °F
Precip. -- in
Pressure 29.99 in
Visibility 10.0 miles
Clouds Scattered Clouds 3800 ft
Mostly Cloudy 4500 ft
Mostly Cloudy 5500 ft
Heat Index 89 °F
Dew Point 62 °F
Humidity 41%
Rainfall 0.00 in
Snow Depth Not available.
6:40 AM 7:33 PM
Waning Crescent, 7% visible
METAR KBIF 291758Z AUTO 06005KT 10SM SCT038 BKN045 BKN055 26/15 A3017 RMK AO2 SLP154 T02560148 10258 20187 58003 $
Pressure 29.99 in
Visibility 10.0 miles
Clouds Scattered Clouds 3800 ft
Mostly Cloudy 4500 ft
Mostly Cloudy 5500 ft
Heat Index 89 °F
Dew Point 62 °F
Humidity 41%
Rainfall 0.00 in
Snow Depth Not available.
6:40 AM 7:33 PM
Waning Crescent, 7% visible
METAR KBIF 291758Z AUTO 06005KT 10SM SCT038 BKN045 BKN055 26/15 A3017 RMK AO2 SLP154 T02560148 10258 20187 58003 $

10-Day Weather Forecast

Almanac

Astronomy

Aug. 29, 2016 Rise Set
Actual Time
Civil Twilight
Nautical Twilight
Astronomical Twilight
Moon
Length of Visible Light
Length of Day
Tomorrow will be .
, % of the Moon is Illuminated

Today's Extremes

State Highs State Lows

Community

WunderPhotos

Upload Photos

1,935,684 photos uploaded!

WunderBlog® & News

Nearby

Air Quality

  Air Quality AQ Index Pollutant
Not available.

Snow Depth

Station Depth Elevation

Earthquake Activity

City Distance Mag. Time & Date
Minimum magnitude displayed is 2.5.

Coastal Water Temperatures

Place Temperature

Stations

Nearby Weather Stations

Station Location Temp. Windchill Dew Point Humidity Wind Precip. Elev Updated Type
                   

Watches & Warnings

There are currently no watches in effect.